Flight Track Log - Related Links

Times and Time Zones

All times are in EDT time to prevent confusion due to time zone crossing. See the N983CA flight status page for this flight to view local times or setup timezone preferences in your user account.

Time Position Orientation Groundspeed Altitude Reporting Facility
EDT Latitude Longitude Course Direction KTS MPH feet Rate Location/Type
Tue 04:06:09 AM 33.8803 -118.4914 216° Southwest 190 219 5,700  Level Los Angeles Center
Tue 04:07:00 AM 34.0676 -118.8940 296° West  Level FlightAware Approximate
Tue 04:07:10 AM 33.8361 -118.5364 220° Southwest 219 252 8,500  Level Los Angeles Center
Tue 04:08:00 AM 34.1000 -119.0171 270° West  Level FlightAware Approximate
Tue 04:08:10 AM 33.8247 -118.6039 259° West 221 254 10,900  Level Los Angeles Center
Tue 04:09:00 AM 34.1896 -119.0500 North  Level FlightAware Approximate
Tue 04:09:10 AM 33.8550 -118.6678 300° West 243 280 13,600  Level Los Angeles Center
Tue 04:10:00 AM 34.2975 -119.0500 North  Level FlightAware Approximate
Tue 04:10:11 AM 33.9300 -118.6997 341° North 293 337 14,500  Level Los Angeles Center
Tue 04:11:11 AM 34.0225 -118.7253 347° North 338 389 15,600 1,250 Climbing Los Angeles Center
Tue 04:12:11 AM 34.1144 -118.7528 346° North 359 413 17,000 1,587 Climbing Los Angeles Center
Tue 04:13:12 AM 34.2131 -118.7806 347° North 361 415 18,800 1,488 Climbing Los Angeles Center
Tue 04:14:12 AM 34.3158 -118.8111 346° North 377 434 20,000 1,200 Climbing Los Angeles Center
Tue 04:15:12 AM 34.4208 -118.8422 346° North 385 443 21,200 1,190 Climbing Los Angeles Center
Tue 04:16:13 AM 34.5269 -118.8728 347° North 392 451 22,400 1,140 Climbing Los Angeles Center
Tue 04:17:13 AM 34.6325 -118.9047 346° North 391 450 23,500 1,250 Climbing Los Angeles Center
Tue 04:18:13 AM 34.7394 -118.9381 346° North 395 455 24,900 1,240 Climbing Los Angeles Center
Tue 04:19:14 AM 34.8464 -118.9697 346° North 395 455 26,000 545 Climbing Los Angeles Center
Tue 04:20:14 AM 34.9547 -119.0031 346° North 400 460 26,000  Level Los Angeles Center
Tue 04:21:14 AM 35.0725 -119.0378 346° North 425 489 26,000  Level Los Angeles Center
Tue 04:22:15 AM 35.1947 -119.0742 346° North 446 513 26,000  Level Los Angeles Center
Tue 04:23:15 AM 35.3178 -119.1114 346° North 454 522 26,000  Level Los Angeles Center
Tue 04:24:15 AM 35.4658 -119.1556 346° North 458 527 26,000  Level Los Angeles Center
Tue 04:25:16 AM 35.5878 -119.1925 346° North 456 525 26,000  Level Los Angeles Center
Tue 04:26:16 AM 35.7069 -119.2283 346° North 450 518 26,000  Level Los Angeles Center
Tue 04:26:34 AM 35.7281 -119.2350 346° North 451 519 26,000 -2,308 Level Oakland Center
Tue 04:27:34 AM 35.8497 -119.2728 346° North 453 521 23,000 -3,150 Descending Oakland Center
Tue 04:28:34 AM 35.9653 -119.3103 345° North 446 513 19,700 -3,350 Descending Oakland Center
Tue 04:29:34 AM 36.0758 -119.3433 346° North 420 483 16,300 -2,033 Descending Oakland Center
Tue 04:30:35 AM 36.1697 -119.3717 346° North 343 395 15,600 -1,835 Descending Oakland Center
Tue 04:31:35 AM 36.2567 -119.3989 346° North 326 375 12,600 -2,650 Descending Oakland Center
Tue 04:32:35 AM 36.3450 -119.4269 346° North 328 377 10,300 -1,900 Descending Oakland Center
Tue 04:33:35 AM 36.4194 -119.4503 346° North 280 322 8,800 -1,850 Descending Oakland Center
Tue 04:34:35 AM 36.4906 -119.4858 338° Northwest 277 319 6,600 -1,700 Descending Oakland Center
Tue 04:36:35 AM 36.6172 -119.5697 332° Northwest 257 296 3,700 -895 Descending Oakland Center
Tue 04:37:36 AM 36.6728 -119.6061 332° Northwest 225 259 3,900 197 Climbing Oakland Center

Login

Don't have an account? Register now (free) for customized features, flight alerts, and more!